Terminal Aerodrome Forecast
Issued by NWS

Home | Current Version | Previous Version | Text Only | Print | Product List | Glossary On
Versions: 1 2 3 4 5 6 7 8 9 10 11 12 13 14 15 16 17 18 19 20 21
000
FTUS46 KSEW 171500 AAA
TAFSEA
TAF AMD
KSEA 171504Z 1715/1818 33004KT P6SM VCSH SCT090 BKN140 BKN250
      TEMPO 1715/1719 -SHRA
     FM180900 20004KT P6SM VCSH BKN050 OVC090=

USA.gov is the U.S. government's official web portal to all federal, state and local government web resources and services.